createdAt,value
2019-03-01T00:01:15.497Z,9.50
2019-03-01T00:03:44.529Z,9.60
2019-03-01T00:06:25.153Z,9.50
2019-03-01T00:09:04.394Z,9.50
2019-03-01T00:11:39.122Z,9.60
2019-03-01T00:14:13.554Z,9.60
2019-03-01T00:17:00.593Z,9.50
2019-03-01T00:19:38.157Z,9.50
2019-03-01T00:22:21.641Z,9.50
2019-03-01T00:25:01.982Z,9.50
2019-03-01T00:27:53.094Z,9.50
2019-03-01T00:30:30.748Z,9.40
2019-03-01T00:33:11.280Z,9.40
2019-03-01T00:35:59.800Z,9.30
2019-03-01T00:38:46.643Z,9.40
2019-03-01T00:41:33.210Z,9.40
2019-03-01T00:44:33.673Z,9.30
2019-03-01T00:47:02.513Z,9.40
2019-03-01T00:49:32.320Z,9.40
2019-03-01T00:52:01.081Z,9.40
2019-03-01T00:54:29.813Z,9.40
2019-03-01T00:56:58.646Z,9.40
2019-03-01T00:59:27.376Z,9.40
2019-03-01T01:01:56.248Z,9.40
2019-03-01T01:04:26.699Z,9.40
2019-03-01T01:06:55.433Z,9.40
2019-03-01T01:09:24.197Z,9.30
2019-03-01T01:11:52.925Z,9.30
2019-03-01T01:14:21.729Z,9.20
2019-03-01T01:16:50.458Z,9.20
2019-03-01T01:19:19.302Z,9.10
2019-03-01T01:21:48.028Z,9.10
2019-03-01T01:24:16.877Z,9.10
2019-03-01T01:26:45.617Z,9.00
2019-03-01T01:29:14.455Z,9.00
2019-03-01T01:31:43.190Z,9.00
2019-03-01T01:34:11.957Z,9.00
2019-03-01T01:36:40.684Z,8.90
2019-03-01T01:39:09.511Z,8.90
2019-03-01T01:41:38.238Z,8.80
2019-03-01T01:44:07.001Z,8.90
2019-03-01T01:46:35.865Z,8.80
2019-03-01T01:49:04.726Z,8.80
2019-03-01T01:51:33.531Z,8.90
2019-03-01T01:54:02.217Z,8.90
2019-03-01T01:56:30.981Z,8.90
2019-03-01T01:58:59.711Z,8.90
2019-03-01T02:01:28.462Z,8.90
2019-03-01T02:03:57.249Z,8.90
2019-03-01T02:06:27.281Z,8.90
2019-03-01T02:08:56.049Z,8.90
2019-03-01T02:11:25.113Z,8.90
2019-03-01T02:13:53.930Z,8.90
2019-03-01T02:16:22.690Z,8.90
2019-03-01T02:18:57.697Z,8.90
2019-03-01T02:21:21.851Z,8.90
2019-03-01T02:23:50.587Z,8.90
2019-03-01T02:26:19.441Z,8.90
2019-03-01T02:28:48.205Z,8.90
2019-03-01T02:31:17.329Z,8.90
2019-03-01T02:33:46.101Z,8.90
2019-03-01T02:36:14.833Z,8.90
2019-03-01T02:38:43.605Z,8.90
2019-03-01T02:41:12.313Z,8.90
2019-03-01T02:43:41.081Z,8.90
2019-03-01T02:46:09.949Z,8.90
2019-03-01T02:48:38.734Z,8.90
2019-03-01T02:51:07.470Z,8.90
2019-03-01T02:53:36.239Z,8.80
2019-03-01T02:56:05.269Z,8.80
2019-03-01T02:58:34.308Z,8.80
2019-03-01T03:01:03.057Z,8.70
2019-03-01T03:03:31.873Z,8.80
2019-03-01T03:06:02.261Z,8.70
2019-03-01T03:08:31.034Z,8.80
2019-03-01T03:10:59.754Z,8.80
2019-03-01T03:13:28.487Z,8.80
2019-03-01T03:15:57.355Z,8.80
2019-03-01T03:18:26.082Z,8.70
2019-03-01T03:20:54.849Z,8.80
2019-03-01T03:23:23.577Z,8.70
2019-03-01T03:25:52.396Z,8.70
2019-03-01T03:28:21.202Z,8.70
2019-03-01T03:30:49.962Z,8.60
2019-03-01T03:33:18.761Z,8.50
2019-03-01T03:35:47.537Z,8.50
2019-03-01T03:38:16.290Z,8.40
2019-03-01T03:40:45.124Z,8.50
2019-03-01T03:43:13.882Z,8.40
2019-03-01T03:45:42.803Z,8.40
2019-03-01T03:48:11.565Z,8.40
2019-03-01T03:50:40.333Z,8.40
2019-03-01T03:53:09.168Z,8.30
2019-03-01T03:55:37.890Z,8.20
2019-03-01T03:58:06.659Z,8.20
2019-03-01T04:00:35.494Z,8.10
2019-03-01T04:03:04.465Z,8.10
2019-03-01T04:05:33.306Z,8.00
2019-03-01T04:08:02.145Z,7.90
2019-03-01T04:10:30.874Z,7.90
2019-03-01T04:12:59.636Z,7.90
2019-03-01T04:15:28.434Z,7.90
2019-03-01T04:17:57.261Z,7.90
2019-03-01T04:20:26.058Z,7.90
2019-03-01T04:22:54.870Z,7.80
2019-03-01T04:25:23.642Z,7.90
2019-03-01T04:27:53.429Z,7.90
2019-03-01T04:30:22.393Z,7.90
2019-03-01T04:32:51.201Z,7.90
2019-03-01T04:35:20.030Z,7.80
2019-03-01T04:37:48.754Z,7.80
2019-03-01T04:40:17.580Z,7.80
2019-03-01T04:42:46.305Z,7.80
2019-03-01T04:45:18.473Z,7.80
2019-03-01T04:47:47.011Z,7.80
2019-03-01T04:50:15.836Z,7.80
2019-03-01T04:52:44.641Z,7.70
2019-03-01T04:55:16.107Z,7.70
2019-03-01T04:57:44.885Z,7.70
2019-03-01T05:00:21.349Z,7.70
2019-03-01T05:02:50.116Z,7.70
2019-03-01T05:05:19.126Z,7.80
2019-03-01T05:07:48.085Z,7.80
2019-03-01T05:10:16.880Z,7.80
2019-03-01T05:12:45.837Z,7.80
2019-03-01T05:15:26.874Z,7.80
2019-03-01T05:17:55.630Z,7.90
2019-03-01T05:20:24.370Z,7.90
2019-03-01T05:22:53.129Z,7.90
2019-03-01T05:25:21.925Z,7.90
2019-03-01T05:27:50.687Z,7.90
2019-03-01T05:30:19.620Z,7.90
2019-03-01T05:32:48.529Z,8.00
2019-03-01T05:35:17.261Z,7.90
2019-03-01T05:37:46.025Z,7.90
2019-03-01T05:40:16.502Z,7.80
2019-03-01T05:42:45.230Z,7.90
2019-03-01T05:45:19.946Z,7.90
2019-03-01T05:47:48.692Z,7.90
2019-03-01T05:50:17.456Z,7.90
2019-03-01T05:52:46.253Z,7.80
2019-03-01T05:55:15.101Z,7.70
2019-03-01T05:58:18.705Z,7.50
2019-03-01T06:00:48.218Z,7.40
2019-03-01T06:03:41.154Z,7.30
2019-03-01T06:06:16.713Z,7.30
2019-03-01T06:08:51.245Z,7.20
2019-03-01T06:11:24.005Z,7.20
2019-03-01T06:14:07.610Z,7.20
2019-03-01T06:16:43.755Z,7.20
2019-03-01T06:19:31.721Z,7.10
2019-03-01T06:22:26.462Z,7.20
2019-03-01T06:25:11.450Z,7.30
2019-03-01T06:27:55.425Z,7.30
2019-03-01T06:30:37.805Z,7.30
2019-03-01T06:33:24.679Z,7.30
2019-03-01T06:36:05.329Z,7.30
2019-03-01T06:39:10.377Z,7.40
2019-03-01T06:42:07.868Z,7.30
2019-03-01T06:44:39.660Z,7.40
2019-03-01T06:47:20.222Z,7.40
2019-03-01T06:49:56.581Z,7.50
2019-03-01T06:52:25.355Z,7.50
2019-03-01T06:54:54.118Z,7.50
2019-03-01T06:57:22.918Z,7.60
2019-03-01T06:59:51.674Z,7.70
2019-03-01T07:02:28.011Z,7.70
2019-03-01T07:04:56.849Z,7.80
2019-03-01T07:07:25.586Z,7.70
2019-03-01T07:09:54.410Z,7.70
2019-03-01T07:12:23.131Z,7.70
2019-03-01T07:14:51.901Z,7.70
2019-03-01T07:17:20.761Z,7.70
2019-03-01T07:19:49.529Z,7.70
2019-03-01T07:22:18.338Z,7.70
2019-03-01T07:24:47.102Z,7.60
2019-03-01T07:27:15.978Z,7.70
2019-03-01T07:29:44.735Z,7.70
2019-03-01T07:32:13.471Z,7.70
2019-03-01T07:34:42.225Z,7.70
2019-03-01T07:37:11.025Z,7.70
2019-03-01T07:39:41.078Z,7.70
2019-03-01T07:42:11.614Z,7.60
2019-03-01T07:44:40.361Z,7.60
2019-03-01T07:47:09.324Z,7.60
2019-03-01T07:49:38.179Z,7.50
2019-03-01T07:52:06.938Z,7.50
2019-03-01T07:54:35.824Z,7.40
2019-03-01T07:57:06.165Z,7.30
2019-03-01T07:59:38.274Z,7.20
2019-03-01T08:02:05.415Z,7.10
2019-03-01T08:04:34.802Z,7.10
2019-03-01T08:07:03.674Z,7.10
2019-03-01T08:09:32.751Z,7.20
2019-03-01T08:12:03.657Z,7.20
2019-03-01T08:14:31.908Z,7.10
2019-03-01T08:17:00.738Z,7.10
2019-03-01T08:19:29.569Z,7.10
2019-03-01T08:21:58.293Z,7.00
2019-03-01T08:24:27.245Z,7.00
2019-03-01T08:26:57.089Z,7.00
2019-03-01T08:29:25.993Z,7.00
2019-03-01T08:31:55.932Z,7.00
2019-03-01T08:34:25.210Z,7.00
2019-03-01T08:36:53.990Z,7.00
2019-03-01T08:39:22.814Z,7.00
2019-03-01T08:41:51.541Z,7.00
2019-03-01T08:44:23.118Z,7.00
2019-03-01T08:46:50.738Z,7.00
2019-03-01T08:49:19.602Z,7.00
2019-03-01T08:51:48.441Z,7.10
2019-03-01T08:54:17.190Z,7.10
2019-03-01T08:56:46.447Z,7.00
2019-03-01T08:59:17.449Z,7.10
2019-03-01T09:01:46.857Z,7.00
2019-03-01T09:04:17.653Z,7.10
2019-03-01T09:06:45.997Z,7.10
2019-03-01T09:09:17.646Z,7.10
2019-03-01T09:11:45.436Z,7.10
2019-03-01T09:14:14.208Z,7.10
2019-03-01T09:16:42.964Z,7.10
2019-03-01T09:19:11.719Z,7.20
2019-03-01T09:21:40.457Z,7.10
2019-03-01T09:24:09.271Z,7.30
2019-03-01T09:26:38.033Z,7.40
2019-03-01T09:29:06.753Z,7.40
2019-03-01T09:31:35.517Z,7.50
2019-03-01T09:34:06.081Z,7.60
2019-03-01T09:36:36.713Z,7.70
2019-03-01T09:39:08.323Z,7.80
2019-03-01T09:41:40.578Z,7.80
2019-03-01T09:44:07.475Z,7.80
2019-03-01T09:46:36.269Z,7.90
2019-03-01T09:49:05.405Z,7.90
2019-03-01T09:51:43.733Z,8.00
2019-03-01T09:54:13.271Z,8.00
2019-03-01T09:56:42.595Z,8.10
2019-03-01T09:59:11.451Z,8.10
2019-03-01T10:01:40.149Z,8.00
2019-03-01T10:04:08.986Z,8.00
2019-03-01T10:06:38.498Z,8.00
2019-03-01T10:09:10.397Z,7.90
2019-03-01T10:11:39.132Z,7.90
2019-03-01T10:14:07.901Z,7.90
2019-03-01T10:16:36.731Z,7.80
2019-03-01T10:19:05.487Z,7.80
2019-03-01T10:21:34.421Z,7.80
2019-03-01T10:24:03.149Z,7.80
2019-03-01T10:26:31.905Z,7.90
2019-03-01T10:29:00.629Z,7.90
2019-03-01T10:31:29.398Z,7.80
2019-03-01T10:33:58.195Z,7.80
2019-03-01T10:36:26.960Z,7.90
2019-03-01T10:38:55.680Z,7.80
2019-03-01T10:41:24.441Z,7.80
2019-03-01T10:43:53.170Z,7.90
2019-03-01T10:46:21.930Z,8.10
2019-03-01T10:48:50.668Z,8.10
2019-03-01T10:51:19.522Z,8.20
2019-03-01T10:53:48.257Z,8.20
2019-03-01T10:56:17.021Z,8.30
2019-03-01T10:58:45.757Z,8.10
2019-03-01T11:01:14.605Z,8.10
2019-03-01T11:03:43.342Z,8.10
2019-03-01T11:06:12.073Z,8.10
2019-03-01T11:08:40.832Z,8.10
2019-03-01T11:11:09.550Z,8.00
2019-03-01T11:13:38.314Z,8.00
2019-03-01T11:16:07.042Z,7.90
2019-03-01T11:18:35.797Z,7.90
2019-03-01T11:21:04.525Z,7.80
2019-03-01T11:23:33.285Z,7.80
2019-03-01T11:26:02.017Z,7.90
2019-03-01T11:28:30.776Z,8.00
2019-03-01T11:30:59.501Z,8.10
2019-03-01T11:33:28.257Z,8.10
2019-03-01T11:35:57.013Z,8.10
2019-03-01T11:38:25.810Z,8.10
2019-03-01T11:40:55.897Z,7.90
2019-03-01T11:43:24.757Z,7.80
2019-03-01T11:45:53.538Z,7.70
2019-03-01T11:48:22.269Z,7.80
2019-03-01T11:50:51.032Z,7.80
2019-03-01T11:53:19.757Z,7.80
2019-03-01T11:55:48.514Z,7.90
2019-03-01T11:58:17.241Z,7.80
2019-03-01T12:00:52.079Z,7.90
2019-03-01T12:03:16.451Z,8.10
2019-03-01T12:05:45.213Z,8.20
2019-03-01T12:08:14.009Z,8.20
2019-03-01T12:10:42.770Z,8.00
2019-03-01T12:13:11.561Z,7.90
2019-03-01T12:15:40.321Z,7.80
2019-03-01T12:18:09.049Z,7.80
2019-03-01T12:20:37.814Z,7.80
2019-03-01T12:23:06.548Z,7.80
2019-03-01T12:25:35.349Z,7.80
2019-03-01T12:28:04.113Z,7.80
2019-03-01T12:30:32.966Z,7.80
2019-03-01T12:33:01.741Z,7.90
2019-03-01T12:35:31.039Z,7.80
2019-03-01T12:38:00.054Z,7.70
2019-03-01T12:40:30.010Z,7.70
2019-03-01T12:42:59.125Z,7.70
2019-03-01T12:45:27.921Z,7.80
2019-03-01T12:47:56.746Z,7.70
2019-03-01T12:50:25.709Z,7.70
2019-03-01T12:52:54.482Z,7.70
2019-03-01T12:55:27.952Z,7.70
2019-03-01T12:57:56.938Z,7.70
2019-03-01T13:00:33.582Z,7.80
2019-03-01T13:03:05.357Z,7.80
2019-03-01T13:05:32.849Z,7.90
2019-03-01T13:08:01.815Z,7.80
2019-03-01T13:10:33.006Z,7.90
2019-03-01T13:13:03.049Z,7.90
2019-03-01T13:15:32.465Z,8.00
2019-03-01T13:18:03.624Z,7.90
2019-03-01T13:20:33.867Z,7.90
2019-03-01T13:23:04.837Z,7.90
2019-03-01T13:25:35.031Z,7.90
2019-03-01T13:28:03.898Z,8.00
2019-03-01T13:30:35.751Z,8.00
2019-03-01T13:33:03.662Z,8.10
2019-03-01T13:35:32.482Z,8.20
2019-03-01T13:38:03.906Z,8.20
2019-03-01T13:40:32.946Z,8.30
2019-03-01T13:43:01.870Z,8.40
2019-03-01T13:45:31.012Z,8.40
2019-03-01T13:47:59.960Z,8.50
2019-03-01T13:50:28.742Z,8.40
2019-03-01T13:52:57.534Z,8.50
2019-03-01T13:55:27.619Z,8.40
2019-03-01T13:57:56.756Z,8.30
2019-03-01T14:00:25.607Z,8.10
2019-03-01T14:02:54.538Z,8.20
2019-03-01T14:05:23.287Z,8.00
2019-03-01T14:07:55.937Z,7.90
2019-03-01T14:10:24.937Z,7.90
2019-03-01T14:12:53.702Z,7.80
2019-03-01T14:15:22.424Z,7.80
2019-03-01T14:17:51.185Z,7.90
2019-03-01T14:20:23.046Z,7.80
2019-03-01T14:22:51.813Z,7.80
2019-03-01T14:25:20.537Z,7.80
2019-03-01T14:27:49.333Z,7.80
2019-03-01T14:30:31.156Z,7.70
2019-03-01T14:32:57.765Z,7.60
2019-03-01T14:35:27.143Z,7.60
2019-03-01T14:37:56.067Z,7.60
2019-03-01T14:40:24.805Z,7.60
2019-03-01T14:42:53.544Z,7.70
2019-03-01T14:45:33.426Z,7.70
2019-03-01T14:48:05.205Z,7.70
2019-03-01T14:50:33.603Z,7.60
2019-03-01T14:53:03.011Z,7.60
2019-03-01T14:55:46.229Z,7.70
2019-03-01T14:58:29.952Z,7.70
2019-03-01T15:01:10.337Z,7.70
2019-03-01T15:03:39.461Z,7.70
2019-03-01T15:06:08.417Z,7.70
2019-03-01T15:08:40.505Z,7.80
2019-03-01T15:11:13.316Z,7.70
2019-03-01T15:13:44.267Z,7.70
2019-03-01T15:16:13.061Z,7.70
2019-03-01T15:18:45.227Z,7.60
2019-03-01T15:21:14.921Z,7.60
2019-03-01T15:23:45.018Z,7.60
2019-03-01T15:26:13.773Z,7.60
2019-03-01T15:28:55.442Z,7.60
2019-03-01T15:31:25.365Z,7.70
2019-03-01T15:33:54.129Z,7.60
2019-03-01T15:36:22.937Z,7.60
2019-03-01T15:38:51.705Z,7.60
2019-03-01T15:41:20.598Z,7.60
2019-03-01T15:43:49.405Z,7.60
2019-03-01T15:46:18.150Z,7.60
2019-03-01T15:48:46.899Z,7.50
2019-03-01T15:51:15.632Z,7.50
2019-03-01T15:53:44.387Z,7.50
2019-03-01T15:56:13.418Z,7.50
2019-03-01T15:58:42.261Z,7.60
2019-03-01T16:01:12.091Z,7.50
2019-03-01T16:03:41.113Z,7.40
2019-03-01T16:06:10.615Z,7.40
2019-03-01T16:08:40.237Z,7.30
2019-03-01T16:11:09.244Z,7.40
2019-03-01T16:13:39.514Z,7.40
2019-03-01T16:16:10.796Z,7.30
2019-03-01T16:18:39.842Z,7.30
2019-03-01T16:21:08.782Z,7.30
2019-03-01T16:23:37.666Z,7.20
2019-03-01T16:26:07.585Z,7.30
2019-03-01T16:28:37.620Z,7.30
2019-03-01T16:31:06.421Z,7.20
2019-03-01T16:33:35.229Z,7.30
2019-03-01T16:36:05.647Z,7.30
2019-03-01T16:38:40.902Z,7.20
2019-03-01T16:41:07.467Z,7.10
2019-03-01T16:43:35.224Z,7.10
2019-03-01T16:46:04.071Z,7.10
2019-03-01T16:48:32.878Z,7.10
2019-03-01T16:51:01.707Z,7.10
2019-03-01T16:53:30.437Z,7.10
2019-03-01T16:55:59.234Z,7.10
2019-03-01T16:58:29.658Z,7.10
2019-03-01T17:00:58.463Z,7.10
2019-03-01T17:03:27.313Z,7.10
2019-03-01T17:05:56.044Z,7.20
2019-03-01T17:08:24.810Z,7.10
2019-03-01T17:10:53.533Z,7.10
2019-03-01T17:13:23.508Z,7.10
2019-03-01T17:15:52.660Z,7.00
2019-03-01T17:18:21.494Z,7.00
2019-03-01T17:20:50.300Z,7.10
2019-03-01T17:23:20.433Z,7.10
2019-03-01T17:25:49.270Z,7.10
2019-03-01T17:28:22.708Z,7.10
2019-03-01T17:30:50.799Z,7.10
2019-03-01T17:33:18.832Z,7.10
2019-03-01T17:35:47.561Z,7.00
2019-03-01T17:38:16.390Z,7.10
2019-03-01T17:40:45.121Z,7.10
2019-03-01T17:43:13.961Z,7.00
2019-03-01T17:45:42.749Z,7.10
2019-03-01T17:48:11.505Z,7.00
2019-03-01T17:50:41.760Z,7.00
2019-03-01T17:53:10.722Z,7.00
2019-03-01T17:55:39.490Z,7.00
2019-03-01T17:58:08.903Z,7.00
2019-03-01T18:00:40.125Z,7.00
2019-03-01T18:03:08.977Z,7.00
2019-03-01T18:05:40.640Z,6.90
2019-03-01T18:08:08.117Z,7.00
2019-03-01T18:10:36.895Z,7.00
2019-03-01T18:13:05.729Z,6.90
2019-03-01T18:15:34.490Z,6.80
2019-03-01T18:18:03.218Z,6.80
2019-03-01T18:20:33.913Z,6.80
2019-03-01T18:23:03.181Z,6.80
2019-03-01T18:25:32.090Z,6.80
2019-03-01T18:28:00.825Z,6.80
2019-03-01T18:30:34.308Z,6.80
2019-03-01T18:33:03.143Z,6.90
2019-03-01T18:35:31.874Z,6.90
2019-03-01T18:38:00.637Z,6.90
2019-03-01T18:40:29.397Z,6.90
2019-03-01T18:42:58.162Z,6.90
2019-03-01T18:45:27.789Z,6.90
2019-03-01T18:47:56.616Z,6.90
2019-03-01T18:50:32.195Z,6.90
2019-03-01T18:53:03.829Z,6.90
2019-03-01T18:55:52.929Z,6.90
2019-03-01T18:58:22.487Z,7.00
2019-03-01T19:00:52.813Z,7.00
2019-03-01T19:03:21.585Z,7.00
2019-03-01T19:05:50.386Z,7.00
2019-03-01T19:08:19.252Z,6.90
2019-03-01T19:10:54.316Z,6.90
2019-03-01T19:13:20.867Z,6.90
2019-03-01T19:15:54.757Z,6.90
2019-03-01T19:18:24.095Z,6.90
2019-03-01T19:20:54.207Z,7.00
2019-03-01T19:23:25.050Z,7.00
2019-03-01T19:25:53.998Z,7.00
2019-03-01T19:28:26.764Z,7.00
2019-03-01T19:30:56.395Z,6.90
2019-03-01T19:33:25.178Z,6.90
2019-03-01T19:35:54.441Z,6.90
2019-03-01T19:38:25.113Z,6.90
2019-03-01T19:40:54.029Z,6.90
2019-03-01T19:43:22.762Z,6.90
2019-03-01T19:45:51.530Z,6.90
2019-03-01T19:48:20.261Z,6.90
2019-03-01T19:50:49.465Z,6.90
2019-03-01T19:53:21.645Z,6.90
2019-03-01T19:55:48.717Z,6.90
2019-03-01T19:58:17.490Z,6.90
2019-03-01T20:00:47.165Z,6.90
2019-03-01T20:03:16.186Z,6.90
2019-03-01T20:05:45.207Z,6.90
2019-03-01T20:08:14.114Z,6.90
2019-03-01T20:10:43.693Z,6.90
2019-03-01T20:13:16.436Z,6.90
2019-03-01T20:15:46.221Z,6.90
2019-03-01T20:18:14.351Z,6.90
2019-03-01T20:20:44.774Z,6.90
2019-03-01T20:23:13.613Z,6.80
2019-03-01T20:25:42.831Z,6.80
2019-03-01T20:28:15.306Z,6.80
2019-03-01T20:30:42.773Z,6.80
2019-03-01T20:33:11.688Z,6.90
2019-03-01T20:35:41.982Z,6.90
2019-03-01T20:38:11.117Z,6.90
2019-03-01T20:40:40.530Z,6.90
2019-03-01T20:43:09.559Z,6.80
2019-03-01T20:45:39.752Z,6.90
2019-03-01T20:48:08.473Z,6.80
2019-03-01T20:50:37.285Z,6.80
2019-03-01T20:53:10.136Z,6.80
2019-03-01T20:55:39.304Z,6.80
2019-03-01T20:58:08.055Z,6.80
2019-03-01T21:00:36.818Z,6.80
2019-03-01T21:03:05.634Z,6.80
2019-03-01T21:05:34.457Z,6.80
2019-03-01T21:08:03.202Z,6.70
2019-03-01T21:10:32.969Z,6.70
2019-03-01T21:13:01.811Z,6.70
2019-03-01T21:15:30.648Z,6.70
2019-03-01T21:17:59.517Z,6.70
2019-03-01T21:20:28.430Z,6.70
2019-03-01T21:22:57.309Z,6.70
2019-03-01T21:25:26.449Z,6.70
2019-03-01T21:27:57.557Z,6.70
2019-03-01T21:30:28.548Z,6.60
2019-03-01T21:32:57.318Z,6.60
2019-03-01T21:35:26.058Z,6.60
2019-03-01T21:37:54.827Z,6.60
2019-03-01T21:40:23.633Z,6.60
2019-03-01T21:42:55.967Z,6.60
2019-03-01T21:45:24.765Z,6.60
2019-03-01T21:47:53.529Z,6.60
2019-03-01T21:50:22.488Z,6.60
2019-03-01T21:52:51.261Z,6.50
2019-03-01T21:55:28.606Z,6.60
2019-03-01T21:57:56.190Z,6.60
2019-03-01T22:00:29.731Z,6.60
2019-03-01T22:02:56.641Z,6.60
2019-03-01T22:05:26.013Z,6.60
2019-03-01T22:07:54.798Z,6.60
2019-03-01T22:10:23.626Z,6.60
2019-03-01T22:12:52.369Z,6.60
2019-03-01T22:15:28.985Z,6.60
2019-03-01T22:17:57.751Z,6.60
2019-03-01T22:20:26.689Z,6.60
2019-03-01T22:22:55.597Z,6.60
2019-03-01T22:25:24.528Z,6.60
2019-03-01T22:27:53.264Z,6.60
2019-03-01T22:30:32.472Z,6.60
2019-03-01T22:33:01.213Z,6.60
2019-03-01T22:35:30.053Z,6.60
2019-03-01T22:38:01.023Z,6.60
2019-03-01T22:40:29.517Z,6.60
2019-03-01T22:42:58.339Z,6.60
2019-03-01T22:45:27.121Z,6.60
2019-03-01T22:47:55.884Z,6.60
2019-03-01T22:50:24.733Z,6.60
2019-03-01T22:52:53.485Z,6.60
2019-03-01T22:55:22.230Z,6.60
2019-03-01T22:57:51.058Z,6.70
2019-03-01T23:00:50.942Z,6.70
2019-03-01T23:03:20.211Z,6.70
2019-03-01T23:05:49.145Z,6.60
2019-03-01T23:08:17.910Z,6.60
2019-03-01T23:10:46.722Z,6.70
2019-03-01T23:13:17.112Z,6.60
2019-03-01T23:15:45.885Z,6.60
2019-03-01T23:18:14.651Z,6.70
2019-03-01T23:20:43.446Z,6.60
2019-03-01T23:23:12.225Z,6.70
2019-03-01T23:25:42.895Z,6.70
2019-03-01T23:28:11.445Z,6.70
2019-03-01T23:30:40.260Z,6.70
2019-03-01T23:33:09.124Z,6.70
2019-03-01T23:35:37.862Z,6.70
2019-03-01T23:38:06.637Z,6.70
2019-03-01T23:40:35.852Z,6.70
2019-03-01T23:43:05.547Z,6.70
2019-03-01T23:45:34.883Z,6.70
2019-03-01T23:48:03.627Z,6.70
2019-03-01T23:50:34.926Z,6.70
2019-03-01T23:53:02.849Z,6.70
2019-03-01T23:55:31.609Z,6.60
2019-03-01T23:58:06.010Z,6.70
